Time;durP1;ratioP1;P1;durP2;ratioP2;P2;SDS_P1;SDS_P2;PMS_P1;PMS_P2;Temp;Humidity;BMP_temperature;BMP_pressure;BME280_temperature;BME280_humidity;BME280_pressure;Samples;Min_cycle;Max_cycle;Signal;HPM_P1;HPM_P2
2024/01/22 00:02:10;;;;;;;5.00;2.10;;;7.20;94.80;;;;;;5012090;28;20203;-58
2024/01/22 00:04:36;;;;;;;2.33;1.67;;;7.20;94.80;;;;;;5012066;28;20218;-58
2024/01/22 00:07:05;;;;;;;3.30;1.80;;;7.20;94.70;;;;;;5011719;28;20238;-58
2024/01/22 00:09:32;;;;;;;4.63;2.10;;;7.20;94.90;;;;;;5011736;28;20213;-58
2024/01/22 00:11:59;;;;;;;3.60;1.87;;;7.10;94.70;;;;;;5011743;28;20227;-60
2024/01/22 00:14:25;;;;;;;3.97;1.93;;;7.00;94.90;;;;;;5011450;28;20680;-58
2024/01/22 00:16:52;;;;;;;3.80;1.80;;;7.00;94.90;;;;;;5011621;28;20229;-60
2024/01/22 00:19:19;;;;;;;3.30;1.67;;;7.10;95.00;;;;;;5011649;28;20669;-58
2024/01/22 00:21:45;;;;;;;3.83;1.87;;;7.00;95.20;;;;;;5011569;28;20207;-58
2024/01/22 00:24:13;;;;;;;2.10;1.80;;;7.00;95.20;;;;;;5011829;28;20203;-59
2024/01/22 00:26:40;;;;;;;3.80;1.80;;;7.00;95.40;;;;;;5011571;28;20298;-58
2024/01/22 00:29:07;;;;;;;3.50;1.70;;;7.00;95.40;;;;;;5011285;28;20214;-58
2024/01/22 00:31:34;;;;;;;2.50;1.80;;;6.90;95.50;;;;;;5011445;28;20249;-58
2024/01/22 00:34:01;;;;;;;3.67;1.77;;;6.90;95.60;;;;;;5011589;28;20207;-59
2024/01/22 00:36:28;;;;;;;2.60;1.53;;;6.90;95.70;;;;;;5011074;28;20246;-59
2024/01/22 00:38:54;;;;;;;2.63;1.57;;;6.80;95.90;;;;;;5011600;28;20297;-58
2024/01/22 00:41:22;;;;;;;2.30;1.73;;;6.80;96.10;;;;;;5011476;28;20261;-59
2024/01/22 00:43:49;;;;;;;3.80;1.90;;;6.80;96.30;;;;;;5011334;28;20211;-57
2024/01/22 00:46:16;;;;;;;3.47;1.90;;;6.80;96.40;;;;;;5011193;28;20230;-60
2024/01/22 00:48:43;;;;;;;3.47;1.70;;;6.80;96.50;;;;;;5011260;28;20218;-58
2024/01/22 00:51:10;;;;;;;3.13;1.77;;;6.80;96.70;;;;;;5011343;28;20277;-58
2024/01/22 00:53:36;;;;;;;4.27;1.80;;;6.80;96.80;;;;;;5011066;28;20222;-59
2024/01/22 00:56:03;;;;;;;2.80;1.67;;;6.80;97.20;;;;;;5011107;28;20239;-59
2024/01/22 00:58:31;;;;;;;4.23;1.70;;;6.80;97.20;;;;;;5011370;28;20211;-59
2024/01/22 01:00:58;;;;;;;3.60;1.87;;;6.80;97.40;;;;;;5014547;28;20207;-58
2024/01/22 01:03:25;;;;;;;2.00;1.60;;;6.80;97.50;;;;;;5015455;28;20663;-58
2024/01/22 01:05:52;;;;;;;2.30;1.50;;;6.80;97.60;;;;;;5014904;28;20222;-58
2024/01/22 01:08:18;;;;;;;2.80;1.50;;;6.80;97.80;;;;;;5015048;28;20203;-59
2024/01/22 01:10:45;;;;;;;3.17;1.60;;;6.80;98.00;;;;;;5015304;28;20214;-59
2024/01/22 01:13:12;;;;;;;3.50;1.90;;;6.70;98.50;;;;;;5015106;28;20600;-60
2024/01/22 01:15:40;;;;;;;3.40;1.70;;;6.70;98.70;;;;;;5014601;28;20241;-60
2024/01/22 01:18:07;;;;;;;2.50;1.50;;;6.80;99.10;;;;;;5015270;28;20211;-59
2024/01/22 01:20:33;;;;;;;2.13;1.50;;;6.80;99.20;;;;;;5014833;28;20211;-58
2024/01/22 01:23:00;;;;;;;1.90;1.53;;;6.80;99.50;;;;;;5014834;28;20234;-59
2024/01/22 01:25:27;;;;;;;3.13;1.60;;;6.80;99.80;;;;;;5014736;28;20234;-58
2024/01/22 01:27:54;;;;;;;1.83;1.30;;;6.90;99.90;;;;;;5015023;28;20214;-59
2024/01/22 01:30:21;;;;;;;1.57;1.30;;;7.00;99.90;;;;;;5014822;28;20207;-58
2024/01/22 01:32:48;;;;;;;3.53;1.80;;;7.00;99.90;;;;;;5014717;28;20227;-59
2024/01/22 01:35:15;;;;;;;2.10;1.57;;;7.00;99.90;;;;;;5014482;28;20486;-59
2024/01/22 01:37:42;;;;;;;2.27;1.70;;;6.90;99.90;;;;;;5014600;28;20214;-58
2024/01/22 01:40:10;;;;;;;3.87;1.73;;;6.90;99.90;;;;;;5014857;28;20249;-58
2024/01/22 01:42:37;;;;;;;3.47;1.70;;;6.80;99.90;;;;;;5014409;28;20232;-59
2024/01/22 01:45:04;;;;;;;3.07;2.10;;;6.80;99.90;;;;;;5014542;28;20215;-59
2024/01/22 01:47:30;;;;;;;2.40;1.70;;;6.80;99.90;;;;;;5014370;28;20585;-61
2024/01/22 01:49:58;;;;;;;3.13;1.80;;;6.80;99.90;;;;;;5014781;28;20712;-59
2024/01/22 01:52:26;;;;;;;2.27;1.60;;;6.80;99.90;;;;;;5014465;28;20227;-58
2024/01/22 01:54:53;;;;;;;2.03;1.60;;;6.80;99.90;;;;;;5014394;28;20625;-59
2024/01/22 01:57:22;;;;;;;2.27;1.60;;;6.70;99.90;;;;;;5013695;28;20230;-59
2024/01/22 01:59:49;;;;;;;3.43;2.00;;;6.70;99.90;;;;;;5013948;28;20207;-59
2024/01/22 02:02:16;;;;;;;3.43;2.10;;;6.60;99.90;;;;;;5013949;28;20601;-59
2024/01/22 02:04:43;;;;;;;2.53;1.73;;;6.50;99.90;;;;;;5013882;28;20237;-59
2024/01/22 02:07:12;;;;;;;2.57;1.90;;;6.50;99.90;;;;;;5014043;28;20237;-58
2024/01/22 02:09:46;;;;;;;3.00;2.30;;;6.40;99.90;;;;;;5013908;28;20280;-58
2024/01/22 02:12:12;;;;;;;3.83;2.00;;;6.30;99.90;;;;;;5013316;28;20578;-59
2024/01/22 02:14:39;;;;;;;2.73;1.80;;;6.20;99.90;;;;;;5013681;28;20298;-58
2024/01/22 02:17:06;;;;;;;2.80;1.77;;;6.20;99.90;;;;;;5013608;28;20230;-58
2024/01/22 02:19:33;;;;;;;4.27;2.00;;;6.10;99.90;;;;;;5013642;28;20677;-57
2024/01/22 02:22:00;;;;;;;2.50;1.87;;;6.10;99.90;;;;;;5013722;28;20716;-58
2024/01/22 02:24:28;;;;;;;2.50;1.90;;;6.00;99.90;;;;;;5013680;28;20203;-58
2024/01/22 02:26:54;;;;;;;3.43;1.70;;;6.00;99.90;;;;;;5013424;28;20285;-59
2024/01/22 02:29:21;;;;;;;2.20;1.70;;;6.00;99.90;;;;;;5013573;28;20246;-59
2024/01/22 02:31:49;;;;;;;2.83;2.00;;;6.00;99.90;;;;;;5013178;28;20578;-59
2024/01/22 02:34:15;;;;;;;3.03;2.07;;;6.00;99.90;;;;;;5013731;28;20211;-58
2024/01/22 02:36:42;;;;;;;2.93;2.20;;;6.00;99.90;;;;;;5013196;28;20230;-59
2024/01/22 02:39:09;;;;;;;2.90;2.00;;;6.00;99.90;;;;;;5013594;28;20211;-58
2024/01/22 02:41:37;;;;;;;4.07;2.20;;;6.00;99.90;;;;;;5013364;28;20215;-58
2024/01/22 02:44:04;;;;;;;2.73;1.87;;;5.90;99.90;;;;;;5013225;28;20211;-58
2024/01/22 02:46:31;;;;;;;2.40;1.80;;;5.80;99.90;;;;;;5012680;28;20249;-60
2024/01/22 02:48:58;;;;;;;3.80;2.17;;;5.70;99.90;;;;;;5013463;28;20215;-57
2024/01/22 02:51:25;;;;;;;2.67;1.80;;;5.60;99.90;;;;;;5013337;28;20334;-58
2024/01/22 02:53:54;;;;;;;3.10;2.00;;;5.50;99.90;;;;;;5013058;28;20227;-59
2024/01/22 02:56:21;;;;;;;3.20;2.00;;;5.50;99.90;;;;;;5012555;28;20273;-58
2024/01/22 02:58:49;;;;;;;2.53;1.90;;;5.50;99.90;;;;;;5012691;28;20584;-58
2024/01/22 03:01:16;;;;;;;3.40;2.30;;;5.60;99.90;;;;;;5013186;28;20269;-58
2024/01/22 03:03:42;;;;;;;2.80;2.00;;;5.40;99.90;;;;;;5013021;28;20221;-58
2024/01/22 03:06:09;;;;;;;2.87;1.93;;;5.30;99.90;;;;;;5012593;28;20230;-58
2024/01/22 03:08:36;;;;;;;3.30;2.10;;;5.30;99.90;;;;;;5012756;28;20207;-58
2024/01/22 03:11:03;;;;;;;3.77;2.00;;;5.20;99.90;;;;;;5012866;28;20265;-59
2024/01/22 03:13:29;;;;;;;2.40;1.80;;;5.20;99.90;;;;;;5012319;28;20223;-59
2024/01/22 03:15:57;;;;;;;3.90;2.13;;;5.20;99.90;;;;;;5012795;28;20227;-58
2024/01/22 03:18:24;;;;;;;4.83;2.10;;;5.20;99.90;;;;;;5012731;28;20797;-58
2024/01/22 03:20:51;;;;;;;2.80;2.00;;;5.20;99.90;;;;;;5012549;28;20207;-58
2024/01/22 03:23:17;;;;;;;2.63;1.90;;;5.20;99.90;;;;;;5011610;28;20210;-58
2024/01/22 03:25:44;;;;;;;2.60;2.37;;;5.00;99.90;;;;;;5012090;28;20274;-58
2024/01/22 03:28:11;;;;;;;3.00;2.20;;;5.10;99.90;;;;;;5012922;28;20210;-58
2024/01/22 03:30:38;;;;;;;2.80;2.00;;;5.20;99.90;;;;;;5012514;28;20227;-58
2024/01/22 03:33:06;;;;;;;3.10;2.00;;;5.20;99.90;;;;;;5012548;28;20223;-58
2024/01/22 03:35:32;;;;;;;2.37;1.80;;;5.30;99.90;;;;;;5011924;28;20259;-58
2024/01/22 03:37:59;;;;;;;3.60;2.10;;;5.50;99.90;;;;;;5012508;28;20207;-58
2024/01/22 03:40:26;;;;;;;5.23;3.07;;;5.70;99.90;;;;;;5012876;28;20207;-59
2024/01/22 03:42:52;;;;;;;2.97;1.97;;;5.80;99.90;;;;;;5012318;28;20262;-58
2024/01/22 03:45:19;;;;;;;2.63;1.90;;;5.80;99.90;;;;;;5012204;28;20281;-58
2024/01/22 03:47:46;;;;;;;2.90;1.90;;;5.90;99.90;;;;;;5012152;28;20641;-59
2024/01/22 03:50:14;;;;;;;3.13;1.90;;;6.00;99.90;;;;;;5012452;28;20242;-58
2024/01/22 03:52:41;;;;;;;3.77;1.90;;;6.10;99.90;;;;;;5011890;28;20226;-59
2024/01/22 03:55:09;;;;;;;2.20;1.63;;;6.10;99.90;;;;;;5011518;28;20214;-59
2024/01/22 03:57:36;;;;;;;2.87;1.80;;;6.10;99.90;;;;;;5012240;28;20214;-59
2024/01/22 04:00:03;;;;;;;3.33;2.37;;;6.10;99.90;;;;;;5012015;28;20588;-59
2024/01/22 04:02:33;;;;;;;2.47;2.00;;;6.10;99.90;;;;;;5011795;28;20221;-59
2024/01/22 04:05:00;;;;;;;2.50;1.73;;;6.10;99.90;;;;;;5011785;28;20301;-59
2024/01/22 04:07:28;;;;;;;3.00;1.83;;;6.10;99.90;;;;;;5011731;28;20210;-59
2024/01/22 04:09:55;;;;;;;4.13;2.00;;;6.00;99.90;;;;;;5004057;28;20214;-59
2024/01/22 04:12:22;;;;;;;2.67;1.90;;;6.00;99.90;;;;;;5011723;28;20314;-59
2024/01/22 04:14:48;;;;;;;3.17;1.73;;;5.90;99.90;;;;;;5011827;28;20215;-59
2024/01/22 04:17:15;;;;;;;4.00;2.00;;;6.00;99.90;;;;;;5011385;28;20223;-58
2024/01/22 04:19:42;;;;;;;3.13;2.00;;;5.90;99.90;;;;;;5011698;28;20218;-59
2024/01/22 04:22:09;;;;;;;4.17;1.90;;;5.90;99.90;;;;;;5011502;28;20321;-59
2024/01/22 04:24:37;;;;;;;2.57;1.90;;;5.90;99.90;;;;;;5011664;28;20210;-59
2024/01/22 04:27:04;;;;;;;3.70;2.20;;;5.90;99.90;;;;;;5011510;28;20577;-59
2024/01/22 04:29:33;;;;;;;3.43;2.07;;;5.80;99.90;;;;;;5011284;28;20207;-59
2024/01/22 04:31:59;;;;;;;3.03;2.13;;;5.70;99.90;;;;;;5011350;28;20669;-57
2024/01/22 04:34:26;;;;;;;4.13;2.50;;;5.60;99.90;;;;;;5011022;28;20696;-59
2024/01/22 04:36:53;;;;;;;3.23;2.10;;;5.60;99.90;;;;;;5011177;28;20318;-58
2024/01/22 04:39:20;;;;;;;2.70;2.00;;;5.60;99.90;;;;;;5011557;28;20235;-57
2024/01/22 04:41:48;;;;;;;4.07;2.50;;;5.80;99.90;;;;;;5011359;28;20293;-60
2024/01/22 04:44:15;;;;;;;8.13;3.23;;;5.80;99.90;;;;;;5011369;28;20266;-59
2024/01/22 04:46:41;;;;;;;4.00;3.20;;;5.90;99.90;;;;;;5011437;28;20237;-58
2024/01/22 04:49:09;;;;;;;5.80;3.73;;;6.00;99.90;;;;;;5011250;28;20210;-59
2024/01/22 04:51:35;;;;;;;4.50;3.13;;;6.20;99.90;;;;;;5011326;28;20218;-59
2024/01/22 04:54:02;;;;;;;6.77;3.00;;;6.20;99.90;;;;;;5011360;28;20222;-59
2024/01/22 04:56:29;;;;;;;4.73;3.20;;;6.20;99.90;;;;;;5010774;28;20739;-59
2024/01/22 04:58:57;;;;;;;4.87;2.80;;;6.20;99.90;;;;;;5003191;28;20214;-59
2024/01/22 05:01:23;;;;;;;3.70;2.60;;;6.10;99.90;;;;;;5011285;28;20211;-58
2024/01/22 05:03:51;;;;;;;6.90;2.67;;;6.00;99.90;;;;;;5010825;28;20215;-59
2024/01/22 05:06:18;;;;;;;4.43;2.47;;;6.00;99.90;;;;;;5011314;28;20258;-59
2024/01/22 05:08:44;;;;;;;3.23;2.03;;;6.10;99.90;;;;;;5011047;28;20688;-58
2024/01/22 05:11:11;;;;;;;4.93;2.63;;;6.10;99.90;;;;;;5011195;28;20254;-60
2024/01/22 05:13:38;;;;;;;3.83;2.13;;;6.10;99.90;;;;;;5011159;28;20226;-59
2024/01/22 05:16:06;;;;;;;3.70;2.37;;;6.10;99.90;;;;;;5010833;28;20226;-58
2024/01/22 05:18:33;;;;;;;3.40;2.33;;;6.00;99.90;;;;;;5010836;28;20218;-60
2024/01/22 05:20:59;;;;;;;3.30;2.20;;;6.00;99.90;;;;;;5011178;28;20253;-59
2024/01/22 05:23:26;;;;;;;2.93;2.07;;;5.90;99.90;;;;;;5010990;28;20675;-59
2024/01/22 05:25:54;;;;;;;3.60;2.27;;;5.90;99.90;;;;;;5010559;28;20607;-59
2024/01/22 05:28:21;;;;;;;3.07;2.27;;;6.00;99.90;;;;;;5010915;28;20218;-59
2024/01/22 05:30:48;;;;;;;3.73;2.27;;;6.10;99.90;;;;;;5010734;28;20207;-58
2024/01/22 05:33:16;;;;;;;3.13;2.00;;;6.20;99.90;;;;;;5011034;28;20724;-58
2024/01/22 05:35:42;;;;;;;3.00;2.03;;;6.40;99.90;;;;;;5010483;28;20235;-59
2024/01/22 05:38:09;;;;;;;5.00;2.37;;;6.60;99.90;;;;;;5010960;28;20214;-59
2024/01/22 05:40:36;;;;;;;4.57;2.47;;;6.70;99.90;;;;;;5010826;28;20238;-59
2024/01/22 05:43:03;;;;;;;2.90;1.80;;;6.90;99.90;;;;;;5010880;28;20207;-59
2024/01/22 05:45:29;;;;;;;2.67;1.83;;;7.10;99.90;;;;;;5010595;28;20326;-59
2024/01/22 05:47:56;;;;;;;3.23;1.80;;;7.40;99.90;;;;;;5013211;28;20688;-59
2024/01/22 05:50:24;;;;;;;3.73;1.90;;;7.60;99.90;;;;;;5014405;28;20210;-59
2024/01/22 05:52:51;;;;;;;3.27;1.77;;;7.80;99.90;;;;;;5014319;28;20211;-60
2024/01/22 05:55:17;;;;;;;2.13;1.60;;;7.90;99.90;;;;;;5013820;28;20218;-60
2024/01/22 05:57:44;;;;;;;2.37;1.57;;;8.10;99.90;;;;;;5014233;28;20207;-59
2024/01/22 06:00:13;;;;;;;2.50;1.60;;;8.20;99.90;;;;;;5014070;28;20217;-59
2024/01/22 06:02:40;;;;;;;2.50;1.53;;;8.30;99.90;;;;;;5012690;28;20211;-60
2024/01/22 06:05:09;;;;;;;2.20;1.50;;;8.50;99.90;;;;;;5014133;28;20207;-60
2024/01/22 06:07:37;;;;;;;2.50;1.60;;;8.60;99.90;;;;;;5013682;28;20214;-58
2024/01/22 06:10:05;;;;;;;4.20;1.53;;;8.70;99.90;;;;;;5014180;28;20550;-61
2024/01/22 06:12:31;;;;;;;2.27;1.53;;;8.80;99.90;;;;;;5013950;28;20338;-59
2024/01/22 06:14:58;;;;;;;4.03;2.17;;;8.90;99.90;;;;;;5013563;28;20227;-59
2024/01/22 06:17:30;;;;;;;3.70;1.50;;;8.80;99.90;;;;;;5013687;28;20649;-61
2024/01/22 06:19:59;;;;;;;3.63;2.07;;;8.90;99.90;;;;;;5013609;28;20203;-59
2024/01/22 06:22:25;;;;;;;4.07;1.67;;;9.00;99.90;;;;;;5013996;28;20310;-60
2024/01/22 06:24:53;;;;;;;2.93;1.57;;;9.00;99.90;;;;;;5013973;28;20238;-57
2024/01/22 06:27:21;;;;;;;2.03;1.30;;;9.10;99.90;;;;;;5013522;28;20285;-58
2024/01/22 06:29:48;;;;;;;2.83;1.40;;;9.20;99.90;;;;;;5013892;28;20214;-58
2024/01/22 06:32:15;;;;;;;3.23;1.43;;;9.40;99.90;;;;;;5013531;28;20607;-59
2024/01/22 06:34:42;;;;;;;2.50;1.60;;;9.40;99.90;;;;;;5014667;28;20231;-58
2024/01/22 06:37:08;;;;;;;4.00;1.90;;;9.50;99.90;;;;;;5013508;28;20234;-58
2024/01/22 06:39:35;;;;;;;1.73;1.50;;;9.60;99.90;;;;;;5013165;28;20268;-58
2024/01/22 06:42:03;;;;;;;1.87;1.40;;;9.60;99.90;;;;;;5013702;28;20207;-59
2024/01/22 06:44:30;;;;;;;4.57;1.70;;;9.60;99.90;;;;;;5013397;28;20211;-58
2024/01/22 06:46:57;;;;;;;3.53;1.70;;;9.70;99.90;;;;;;5012869;28;20277;-59
2024/01/22 06:49:24;;;;;;;2.73;1.70;;;9.70;99.90;;;;;;5012977;28;20657;-58
2024/01/22 06:51:50;;;;;;;3.03;1.80;;;9.70;99.90;;;;;;5012768;28;20569;-58
2024/01/22 06:54:19;;;;;;;3.17;2.00;;;9.80;99.90;;;;;;5012780;28;20663;-59
2024/01/22 06:56:46;;;;;;;2.57;1.60;;;9.80;99.90;;;;;;5012526;28;20329;-58
2024/01/22 06:59:14;;;;;;;3.50;1.70;;;10.00;99.90;;;;;;5012896;28;20242;-57
2024/01/22 07:01:41;;;;;;;2.43;1.63;;;10.00;99.90;;;;;;5012673;28;20211;-57
2024/01/22 07:04:08;;;;;;;2.90;1.60;;;10.00;99.90;;;;;;5012863;28;20637;-58
2024/01/22 07:06:35;;;;;;;1.73;1.47;;;10.00;99.90;;;;;;5012193;28;20231;-58
2024/01/22 07:09:02;;;;;;;1.90;1.50;;;10.10;99.90;;;;;;5012677;28;20303;-58
2024/01/22 07:11:30;;;;;;;2.40;1.60;;;10.10;99.90;;;;;;5012529;28;20638;-58
2024/01/22 07:13:56;;;;;;;2.53;1.80;;;10.10;99.90;;;;;;5012643;28;20218;-58
2024/01/22 07:16:25;;;;;;;2.73;1.63;;;10.00;99.90;;;;;;5012003;28;20720;-59
2024/01/22 07:18:51;;;;;;;2.23;1.50;;;10.10;99.90;;;;;;5012350;28;20214;-57
2024/01/22 07:21:18;;;;;;;2.93;1.83;;;10.10;99.90;;;;;;5012555;28;20210;-57
2024/01/22 07:23:45;;;;;;;2.80;1.90;;;10.20;99.90;;;;;;5012556;28;20207;-58
2024/01/22 07:26:12;;;;;;;6.97;2.13;;;10.10;99.70;;;;;;5012445;28;20233;-58
2024/01/22 07:28:38;;;;;;;2.17;1.50;;;10.10;99.80;;;;;;5012511;28;20272;-59
2024/01/22 07:31:05;;;;;;;4.67;1.67;;;10.10;99.80;;;;;;5012992;28;20203;-59
2024/01/22 07:33:33;;;;;;;3.50;1.67;;;10.10;99.70;;;;;;5012475;28;20218;-58
2024/01/22 07:36:00;;;;;;;2.70;1.60;;;10.10;99.70;;;;;;5012248;28;20227;-57
2024/01/22 07:38:26;;;;;;;2.47;1.57;;;10.10;99.70;;;;;;5012400;28;20703;-59
2024/01/22 07:40:53;;;;;;;3.90;1.50;;;10.20;99.70;;;;;;5012575;28;20217;-58
2024/01/22 07:43:20;;;;;;;2.10;1.23;;;10.30;99.60;;;;;;5012872;28;20214;-59
2024/01/22 07:45:46;;;;;;;3.33;1.30;;;10.40;99.60;;;;;;5012693;28;20261;-59
2024/01/22 07:48:13;;;;;;;3.03;1.57;;;10.50;99.50;;;;;;5012150;28;20338;-58
2024/01/22 07:50:41;;;;;;;2.73;1.30;;;10.50;99.30;;;;;;5011907;28;20269;-58
2024/01/22 07:53:08;;;;;;;1.63;1.20;;;10.50;99.30;;;;;;5012389;28;20257;-58
2024/01/22 07:55:35;;;;;;;7.53;1.80;;;10.60;99.30;;;;;;5011693;28;20242;-59
2024/01/22 07:58:02;;;;;;;2.30;1.20;;;10.70;99.30;;;;;;5004259;28;20218;-58
2024/01/22 08:00:29;;;;;;;2.00;1.10;;;10.70;99.40;;;;;;5012054;28;20211;-58
2024/01/22 08:02:56;;;;;;;2.83;1.10;;;10.80;99.50;;;;;;5011892;28;20210;-58
2024/01/22 08:05:22;;;;;;;2.33;0.90;;;10.80;99.60;;;;;;5011849;28;20222;-58
2024/01/22 08:07:50;;;;;;;1.60;1.07;;;10.80;99.60;;;;;;5011940;28;20265;-58
2024/01/22 08:10:17;;;;;;;2.13;1.03;;;10.80;99.60;;;;;;5011507;28;20265;-58
2024/01/22 08:12:44;;;;;;;1.87;1.10;;;10.80;99.90;;;;;;5011680;28;20268;-58
2024/01/22 08:15:14;;;;;;;3.17;1.30;;;10.80;99.90;;;;;;5011436;28;20744;-59
2024/01/22 08:17:42;;;;;;;3.33;1.00;;;10.90;99.90;;;;;;5011353;28;20226;-59
2024/01/22 08:20:09;;;;;;;1.37;1.10;;;10.90;99.90;;;;;;5012012;28;20212;-59
2024/01/22 08:22:36;;;;;;;1.13;0.90;;;11.00;99.90;;;;;;5011979;28;20273;-59
2024/01/22 08:25:05;;;;;;;5.23;1.53;;;11.00;99.90;;;;;;5003458;28;20206;-57
2024/01/22 08:27:31;;;;;;;4.97;3.03;;;11.10;99.90;;;;;;5011753;28;20225;-58
2024/01/22 08:29:58;;;;;;;4.30;1.57;;;11.20;99.90;;;;;;5011352;28;20211;-60
2024/01/22 08:32:25;;;;;;;2.93;0.70;;;11.20;99.90;;;;;;5011758;28;20214;-58
2024/01/22 08:34:51;;;;;;;2.47;1.10;;;11.20;99.90;;;;;;5011638;28;20230;-58
2024/01/22 08:37:18;;;;;;;1.40;1.00;;;11.40;99.90;;;;;;5011666;28;20230;-58
2024/01/22 08:39:44;;;;;;;1.60;0.90;;;11.40;99.90;;;;;;5011234;28;20218;-58
2024/01/22 08:42:12;;;;;;;3.10;1.30;;;11.50;99.90;;;;;;5011386;28;20203;-57
2024/01/22 08:44:38;;;;;;;2.27;1.13;;;11.60;99.90;;;;;;5011213;28;20240;-57
2024/01/22 08:47:05;;;;;;;2.33;1.17;;;11.70;99.90;;;;;;5011374;28;20313;-58
2024/01/22 08:49:32;;;;;;;2.23;1.17;;;11.70;99.90;;;;;;5011525;28;20218;-59
2024/01/22 08:51:58;;;;;;;1.43;1.03;;;11.80;99.90;;;;;;5012156;28;20213;-58
2024/01/22 08:54:25;;;;;;;1.83;0.90;;;11.90;99.90;;;;;;5011252;28;20230;-58
2024/01/22 08:56:52;;;;;;;1.17;0.77;;;12.00;99.90;;;;;;5010632;28;20243;-58
2024/01/22 08:59:20;;;;;;;1.23;0.90;;;12.10;99.90;;;;;;5011124;28;20294;-59
2024/01/22 09:01:47;;;;;;;1.20;0.90;;;12.20;99.90;;;;;;5010902;28;20676;-58
2024/01/22 09:04:14;;;;;;;1.63;1.13;;;12.30;99.90;;;;;;5011223;28;20203;-58
2024/01/22 09:06:40;;;;;;;1.30;1.10;;;12.40;99.90;;;;;;5011163;28;20230;-58
2024/01/22 09:09:09;;;;;;;1.07;0.90;;;12.50;99.90;;;;;;5011378;28;20211;-57
2024/01/22 09:11:36;;;;;;;2.50;1.10;;;12.50;99.90;;;;;;5011043;28;20382;-58
2024/01/22 09:14:03;;;;;;;2.50;1.07;;;12.60;99.90;;;;;;5011355;28;20217;-58
2024/01/22 09:16:31;;;;;;;1.47;1.10;;;12.60;99.90;;;;;;5011051;28;20281;-57
2024/01/22 09:18:58;;;;;;;3.03;1.20;;;12.60;99.90;;;;;;5010894;28;20281;-58
2024/01/22 09:21:24;;;;;;;2.43;1.30;;;12.60;99.90;;;;;;5013088;28;20298;-58
2024/01/22 09:23:51;;;;;;;1.87;1.13;;;12.60;99.90;;;;;;5014810;28;20219;-58
2024/01/22 09:26:18;;;;;;;2.47;1.03;;;12.60;99.90;;;;;;5014300;28;20219;-58
2024/01/22 09:28:44;;;;;;;1.60;1.20;;;12.70;99.90;;;;;;5014834;28;20215;-59
2024/01/22 09:31:11;;;;;;;4.23;1.30;;;12.70;99.90;;;;;;5014846;28;20210;-59
2024/01/22 09:33:39;;;;;;;6.40;1.20;;;12.90;99.90;;;;;;5014777;28;20298;-59
2024/01/22 09:36:07;;;;;;;1.30;1.03;;;13.00;99.90;;;;;;5006414;28;20235;-58
2024/01/22 09:38:33;;;;;;;2.37;1.40;;;13.00;99.90;;;;;;5014793;28;20257;-58
2024/01/22 09:40:59;;;;;;;3.10;1.37;;;13.20;99.90;;;;;;5014147;28;20221;-59
2024/01/22 09:43:26;;;;;;;1.77;0.90;;;13.20;99.90;;;;;;5014337;28;20203;-58
2024/01/22 09:45:54;;;;;;;2.63;1.00;;;13.40;99.90;;;;;;5013903;28;20275;-58
2024/01/22 09:48:20;;;;;;;2.47;1.73;;;13.50;99.90;;;;;;5014357;28;20294;-59
2024/01/22 09:50:51;;;;;;;2.67;1.90;;;13.60;99.90;;;;;;5014494;28;20207;-59
2024/01/22 09:53:18;;;;;;;7.47;4.00;;;13.70;99.90;;;;;;5014146;28;20246;-59
2024/01/22 09:55:45;;;;;;;1.50;0.93;;;13.70;99.90;;;;;;5037792;22;20231;-57
2024/01/22 09:58:18;;;;;;;1.17;0.57;;;13.80;99.90;;;;;;5015280;28;20218;-57
2024/01/22 10:00:46;;;;;;;0.67;0.50;;;13.90;99.90;;;;;;5015326;28;20215;-58
2024/01/22 10:03:14;;;;;;;0.80;0.60;;;14.00;99.90;;;;;;5014942;28;20215;-58
2024/01/22 10:05:40;;;;;;;1.53;0.77;;;14.10;99.90;;;;;;5014654;28;20230;-57
2024/01/22 10:08:09;;;;;;;2.73;0.60;;;14.20;99.90;;;;;;4999274;28;20265;-58
2024/01/22 10:10:37;;;;;;;7.80;0.70;;;14.30;99.90;;;;;;4999622;28;20211;-58
2024/01/22 10:13:07;;;;;;;1.00;0.70;;;14.50;99.90;;;;;;4995212;28;20239;-58
2024/01/22 10:15:34;;;;;;;1.70;0.80;;;14.60;99.90;;;;;;4995316;28;20240;-58
2024/01/22 10:18:13;;;;;;;1.20;0.63;;;14.80;99.90;;;;;;4995280;28;20216;-58
2024/01/22 10:20:40;;;;;;;2.13;0.73;;;14.90;99.90;;;;;;4996087;28;20924;-58
2024/01/22 10:23:09;;;;;;;1.57;1.00;;;15.00;99.90;;;;;;4991469;28;20210;-59
2024/01/22 10:25:36;;;;;;;1.77;0.60;;;15.10;99.90;;;;;;4999228;28;20207;-58
2024/01/22 10:28:11;;;;;;;0.50;0.30;;;15.00;99.90;;;;;;5003493;28;20311;-58
2024/01/22 10:30:39;;;;;;;0.50;0.50;;;15.00;99.90;;;;;;4994956;28;20211;-58
2024/01/22 10:33:13;;;;;;;1.73;0.77;;;14.90;99.90;;;;;;5005769;28;20211;-58
2024/01/22 10:35:40;;;;;;;1.33;0.70;;;14.90;99.90;;;;;;4998334;28;20265;-58
2024/01/22 10:38:10;;;;;;;0.70;0.40;;;14.80;99.90;;;;;;4987261;28;20234;-57
2024/01/22 10:40:37;;;;;;;0.83;0.70;;;14.80;99.90;;;;;;4994796;28;20216;-57
2024/01/22 10:43:21;;;;;;;0.77;0.40;;;14.90;99.90;;;;;;5002701;28;20208;-58
2024/01/22 10:45:48;;;;;;;0.73;0.57;;;14.90;99.90;;;;;;4994650;28;20218;-58
2024/01/22 10:48:17;;;;;;;0.67;0.60;;;14.90;99.90;;;;;;4994598;28;20653;-58
2024/01/22 10:50:45;;;;;;;0.63;0.53;;;14.90;99.90;;;;;;4994650;28;20223;-58
2024/01/22 10:53:13;;;;;;;0.77;0.60;;;14.90;99.90;;;;;;4994580;28;20279;-58
2024/01/22 10:55:40;;;;;;;0.67;0.60;;;14.90;99.90;;;;;;4994185;28;20227;-57
2024/01/22 10:58:15;;;;;;;1.80;0.60;;;14.90;99.90;;;;;;4994993;28;20657;-58
2024/01/22 11:00:44;;;;;;;3.23;1.03;;;15.00;99.90;;;;;;4994570;28;20218;-56
2024/01/22 11:03:14;;;;;;;1.33;0.80;;;15.10;99.90;;;;;;4994553;28;20243;-58
2024/01/22 11:05:45;;;;;;;1.90;0.97;;;15.10;99.90;;;;;;4994339;28;20583;-58
2024/01/22 11:08:15;;;;;;;0.88;0.80;;;15.20;99.90;;;;;;4994896;28;20214;-56
2024/01/22 11:10:44;;;;;;;2.30;0.73;;;15.40;99.90;;;;;;4994555;28;20219;-57
2024/01/22 11:13:12;;;;;;;2.67;2.23;;;15.50;99.90;;;;;;4994114;28;20231;-59
2024/01/22 11:15:40;;;;;;;1.27;1.13;;;15.60;99.90;;;;;;4993692;28;20363;-59
2024/01/22 11:18:08;;;;;;;1.13;0.40;;;15.70;99.90;;;;;;4994041;28;20211;-59
2024/01/22 11:20:37;;;;;;;1.15;0.70;;;15.70;99.90;;;;;;4994117;28;20215;-58
2024/01/22 11:23:08;;;;;;;0.65;0.50;;;15.80;99.90;;;;;;5001766;28;20306;-58
2024/01/22 11:25:37;;;;;;;0.43;0.43;;;15.80;99.90;;;;;;4993211;28;20216;-57
2024/01/22 11:28:04;;;;;;;1.75;0.77;;;16.00;99.90;;;;;;4992366;28;20215;-55
2024/01/22 11:30:36;;;;;;;3.30;0.90;;;16.00;99.90;;;;;;4992686;28;20216;-56
2024/01/22 11:33:03;;;;;;;0.73;0.60;;;16.10;99.90;;;;;;4992306;28;20211;-56
2024/01/22 11:35:35;;;;;;;2.22;0.60;;;16.30;99.90;;;;;;4992198;28;20309;-54
2024/01/22 11:38:03;;;;;;;0.88;0.65;;;16.40;99.90;;;;;;4992630;28;20226;-57
2024/01/22 11:40:51;;;;;;;1.50;0.80;;;16.40;99.90;;;;;;4992522;28;20211;-56
2024/01/22 11:43:20;;;;;;;1.47;0.90;;;16.40;99.90;;;;;;4985689;28;20211;-56
2024/01/22 11:45:51;;;;;;;0.75;0.60;;;16.40;99.90;;;;;;4990805;28;20211;-56
2024/01/22 11:48:19;;;;;;;0.50;0.40;;;16.20;99.90;;;;;;4992256;28;20742;-56
2024/01/22 11:50:58;;;;;;;0.75;0.57;;;16.00;99.90;;;;;;4992361;28;20215;-56
2024/01/22 11:53:24;;;;;;;0.70;0.60;;;15.80;99.90;;;;;;4992287;28;20247;-56
2024/01/22 11:56:00;;;;;;;1.50;0.70;;;15.70;99.90;;;;;;4991340;28;20231;-56
2024/01/22 11:58:27;;;;;;;0.97;0.73;;;15.60;99.90;;;;;;4991935;28;20669;-56
2024/01/22 12:00:54;;;;;;;1.13;0.70;;;15.50;99.90;;;;;;4992285;28;20270;-58
2024/01/22 12:03:24;;;;;;;1.67;0.87;;;15.30;99.90;;;;;;4992135;28;20203;-55
2024/01/22 12:05:58;;;;;;;1.90;0.90;;;15.30;99.90;;;;;;4999728;28;20322;-57
2024/01/22 12:08:25;;;;;;;1.40;0.80;;;15.20;99.90;;;;;;4991942;28;20261;-56
2024/01/22 12:10:56;;;;;;;0.73;0.73;;;15.20;99.90;;;;;;4999759;28;20301;-57
2024/01/22 12:13:24;;;;;;;2.00;0.60;;;15.20;99.90;;;;;;5000058;28;20235;-57
2024/01/22 12:15:56;;;;;;;1.07;0.70;;;15.20;99.90;;;;;;4991389;28;20235;-56
2024/01/22 12:18:23;;;;;;;2.17;1.57;;;15.10;99.90;;;;;;4992211;28;20302;-60
2024/01/22 12:20:50;;;;;;;0.90;0.70;;;15.00;99.90;;;;;;4998534;28;20290;-62
2024/01/22 12:23:29;;;;;;;1.10;0.70;;;15.00;99.90;;;;;;4998260;28;20212;-56
2024/01/22 12:25:55;;;;;;;2.80;1.30;;;14.90;99.90;;;;;;4991304;28;20294;-60
2024/01/22 12:28:24;;;;;;;0.50;0.40;;;14.90;99.90;;;;;;4991480;28;20214;-60
2024/01/22 12:30:58;;;;;;;0.90;0.80;;;14.90;99.90;;;;;;4999176;28;20298;-60
2024/01/22 12:33:25;;;;;;;0.93;0.60;;;14.90;99.90;;;;;;4991564;28;20211;-60
2024/01/22 12:35:52;;;;;;;1.33;0.90;;;14.80;99.90;;;;;;4998577;28;20232;-60
2024/01/22 12:38:20;;;;;;;1.20;0.67;;;14.80;99.90;;;;;;4991564;28;20551;-58
2024/01/22 12:40:57;;;;;;;1.10;0.67;;;14.70;99.90;;;;;;4991212;28;20693;-58
2024/01/22 12:43:25;;;;;;;3.13;0.70;;;14.80;99.90;;;;;;4991431;28;20250;-60
2024/01/22 12:46:04;;;;;;;1.23;0.57;;;14.80;99.90;;;;;;4990772;28;20258;-60
2024/01/22 12:48:31;;;;;;;2.63;0.70;;;14.90;99.90;;;;;;4990858;28;20627;-60
2024/01/22 12:50:57;;;;;;;1.33;0.93;;;14.80;99.90;;;;;;4991364;28;20211;-60
2024/01/22 12:53:24;;;;;;;1.30;0.80;;;14.80;99.90;;;;;;4999865;28;20752;-60
2024/01/22 12:55:50;;;;;;;1.80;1.20;;;14.80;99.90;;;;;;5000969;28;20725;-60